createdAt,value
2019-02-19T00:03:57.217Z,32.33
2019-02-19T00:09:01.594Z,32.53
2019-02-19T00:14:07.580Z,32.33
2019-02-19T00:19:11.977Z,36.13
2019-02-19T00:24:16.323Z,36.88
2019-02-19T00:29:20.735Z,35.93
2019-02-19T00:34:25.139Z,38.77
2019-02-19T00:39:29.543Z,38.43
2019-02-19T00:44:33.903Z,38.67
2019-02-19T00:49:38.271Z,36.30
2019-02-19T00:54:42.681Z,36.67
2019-02-19T00:59:47.075Z,36.87
2019-02-19T01:04:51.491Z,38.50
2019-02-19T01:09:55.869Z,37.87
2019-02-19T01:15:00.273Z,32.90
2019-02-19T01:20:07.072Z,35.07
2019-02-19T01:25:11.390Z,32.63
2019-02-19T01:30:15.777Z,33.47
2019-02-19T01:35:20.150Z,34.47
2019-02-19T01:40:24.512Z,39.25
2019-02-19T01:45:34.012Z,38.27
2019-02-19T01:50:35.108Z,31.90
2019-02-19T01:55:39.486Z,38.57
2019-02-19T02:00:43.842Z,34.83
2019-02-19T02:05:48.200Z,36.83
2019-02-19T02:10:52.545Z,39.37
2019-02-19T02:15:56.927Z,39.07
2019-02-19T02:21:01.284Z,38.10
2019-02-19T02:26:05.667Z,36.77
2019-02-19T02:31:10.041Z,36.53
2019-02-19T02:36:14.445Z,35.07
2019-02-19T02:41:18.821Z,36.40
2019-02-19T02:46:23.373Z,38.30
2019-02-19T02:51:27.759Z,40.90
2019-02-19T02:56:32.253Z,39.60
2019-02-19T03:01:36.657Z,44.90
2019-02-19T03:06:42.675Z,42.60
2019-02-19T03:11:47.026Z,40.53
2019-02-19T03:16:51.409Z,38.63
2019-02-19T03:21:55.779Z,39.70
2019-02-19T03:27:00.226Z,38.25
2019-02-19T03:32:04.619Z,38.03
2019-02-19T03:37:09.185Z,47.33
2019-02-19T03:42:13.610Z,47.10
2019-02-19T03:47:18.008Z,45.97
2019-02-19T03:52:22.384Z,45.80
2019-02-19T03:57:26.928Z,54.00
2019-02-19T04:02:31.319Z,48.48
2019-02-19T04:07:35.748Z,48.17
2019-02-19T04:12:40.149Z,53.07
2019-02-19T04:17:44.500Z,51.07
2019-02-19T04:22:48.906Z,48.90
2019-02-19T04:27:53.310Z,54.50
2019-02-19T04:32:57.646Z,53.07
2019-02-19T04:38:02.058Z,53.53
2019-02-19T04:43:06.444Z,50.77
2019-02-19T04:48:10.870Z,54.00
2019-02-19T04:53:15.271Z,51.00
2019-02-19T04:58:19.699Z,51.97
2019-02-19T05:03:24.057Z,52.43
2019-02-19T05:08:28.453Z,55.17
2019-02-19T05:13:32.824Z,57.20
2019-02-19T05:18:37.191Z,58.47
2019-02-19T05:23:41.543Z,54.27
2019-02-19T05:28:46.011Z,55.37
2019-02-19T05:33:50.478Z,58.43
2019-02-19T05:38:54.850Z,54.33
2019-02-19T05:43:59.196Z,59.17
2019-02-19T05:49:03.591Z,55.83
2019-02-19T05:54:07.933Z,54.37
2019-02-19T05:59:12.290Z,53.03
2019-02-19T06:04:16.710Z,57.83
2019-02-19T06:09:21.064Z,56.17
2019-02-19T06:14:25.415Z,56.48
2019-02-19T06:19:29.806Z,57.27
2019-02-19T06:24:34.166Z,57.27
2019-02-19T06:29:38.664Z,54.60
2019-02-19T06:34:43.066Z,52.97
2019-02-19T06:39:47.497Z,57.50
2019-02-19T06:44:51.972Z,54.77
2019-02-19T06:49:56.317Z,52.90
2019-02-19T06:55:00.673Z,56.27
2019-02-19T07:00:08.617Z,57.67
2019-02-19T07:05:14.645Z,54.93
2019-02-19T07:10:19.041Z,56.33
2019-02-19T07:15:23.444Z,55.67
2019-02-19T07:20:27.892Z,54.43
2019-02-19T07:25:32.252Z,53.63
2019-02-19T07:30:36.633Z,57.83
2019-02-19T07:35:41.118Z,52.47
2019-02-19T07:40:45.432Z,51.93
2019-02-19T07:45:49.849Z,49.13
2019-02-19T07:50:54.227Z,52.93
2019-02-19T07:55:58.630Z,52.58
2019-02-19T08:01:03.024Z,55.93
2019-02-19T08:06:07.410Z,50.30
2019-02-19T08:11:11.752Z,52.70
2019-02-19T08:16:16.143Z,54.20
2019-02-19T08:21:20.558Z,51.33
2019-02-19T08:26:24.985Z,50.43
2019-02-19T08:31:29.314Z,48.70
2019-02-19T08:36:33.746Z,51.40
2019-02-19T08:41:38.160Z,49.80
2019-02-19T08:46:42.536Z,54.80
2019-02-19T08:51:55.748Z,52.23
2019-02-19T08:56:52.999Z,48.13
2019-02-19T09:01:57.354Z,49.20
2019-02-19T09:07:01.706Z,45.33
2019-02-19T09:12:06.147Z,48.87
2019-02-19T09:17:10.522Z,42.53
2019-02-19T09:22:14.896Z,39.03
2019-02-19T09:27:19.317Z,36.67
2019-02-19T09:32:23.652Z,33.83
2019-02-19T09:37:28.074Z,16.33
2019-02-19T09:42:32.419Z,11.60
2019-02-19T09:47:36.795Z,11.80
2019-02-19T09:52:41.183Z,10.47
2019-02-19T09:57:45.526Z,8.60
2019-02-19T10:02:49.920Z,12.57
2019-02-19T10:07:55.871Z,9.57
2019-02-19T10:13:00.407Z,9.10
2019-02-19T10:18:10.215Z,8.53
2019-02-19T10:23:10.950Z,6.37
2019-02-19T10:28:15.362Z,7.67
2019-02-19T10:33:19.747Z,6.83
2019-02-19T10:38:24.114Z,7.37
2019-02-19T10:43:28.495Z,7.10
2019-02-19T10:48:32.919Z,10.57
2019-02-19T10:53:37.282Z,9.07
2019-02-19T10:58:41.756Z,8.73
2019-02-19T11:03:46.221Z,9.60
2019-02-19T11:08:50.607Z,9.17
2019-02-19T11:13:54.982Z,8.33
2019-02-19T11:18:59.330Z,8.33
2019-02-19T11:24:03.789Z,9.90
2019-02-19T11:29:08.180Z,7.63
2019-02-19T11:34:12.760Z,8.93
2019-02-19T11:39:17.258Z,11.40
2019-02-19T11:44:21.626Z,10.67
2019-02-19T11:49:26.048Z,9.87
2019-02-19T11:54:30.450Z,8.73
2019-02-19T11:59:34.803Z,8.97
2019-02-19T12:04:39.174Z,9.70
2019-02-19T12:09:44.411Z,8.37
2019-02-19T12:14:48.795Z,11.80
2019-02-19T12:19:53.166Z,11.57
2019-02-19T12:24:57.665Z,9.60
2019-02-19T12:30:02.193Z,11.23
2019-02-19T12:35:08.816Z,14.07
2019-02-19T12:40:14.686Z,10.27
2019-02-19T12:45:19.236Z,11.10
2019-02-19T12:50:23.619Z,12.80
2019-02-19T12:55:28.002Z,10.73
2019-02-19T13:00:32.407Z,14.40
2019-02-19T13:05:36.765Z,10.57
2019-02-19T13:10:43.880Z,12.03
2019-02-19T13:15:48.422Z,11.67
2019-02-19T13:20:52.806Z,11.63
2019-02-19T13:25:57.279Z,13.50
2019-02-19T13:31:01.701Z,12.87
2019-02-19T13:36:06.815Z,12.37
2019-02-19T13:41:11.162Z,13.37
2019-02-19T13:46:15.628Z,15.27
2019-02-19T13:51:20.010Z,14.00
2019-02-19T13:56:24.409Z,15.20
2019-02-19T14:01:28.852Z,16.77
2019-02-19T14:06:33.376Z,13.20
2019-02-19T14:11:37.827Z,13.57
2019-02-19T14:16:49.317Z,11.73
2019-02-19T14:21:58.181Z,11.53
2019-02-19T14:27:04.241Z,13.97
2019-02-19T14:32:10.377Z,12.90
2019-02-19T14:37:22.447Z,10.87
2019-02-19T14:42:47.568Z,9.73
2019-02-19T14:47:53.594Z,9.23
2019-02-19T14:53:14.486Z,8.53
2019-02-19T14:58:23.219Z,6.90
2019-02-19T15:03:38.535Z,8.83
2019-02-19T15:08:47.202Z,8.97
2019-02-19T15:13:56.385Z,10.23
2019-02-19T15:19:02.367Z,8.90
2019-02-19T15:24:18.948Z,9.60
2019-02-19T15:29:34.021Z,7.37
2019-02-19T15:34:56.932Z,8.23
2019-02-19T15:40:21.737Z,8.07
2019-02-19T15:45:27.820Z,5.27
2019-02-19T15:50:49.992Z,6.63
2019-02-19T15:55:58.473Z,6.47
2019-02-19T16:01:20.914Z,6.27
2019-02-19T16:06:42.420Z,6.33
2019-02-19T16:11:48.404Z,5.37
2019-02-19T16:16:54.469Z,6.47
2019-02-19T16:22:00.455Z,7.43
2019-02-19T16:27:06.510Z,5.93
2019-02-19T16:32:12.534Z,5.23
2019-02-19T16:37:18.533Z,6.97
2019-02-19T16:42:24.515Z,5.27
2019-02-19T16:47:30.759Z,6.40
2019-02-19T16:52:54.869Z,7.13
2019-02-19T16:58:13.913Z,7.40
2019-02-19T17:03:26.189Z,6.97
2019-02-19T17:08:41.368Z,5.50
2019-02-19T17:14:06.568Z,7.63
2019-02-19T17:19:12.805Z,8.43
2019-02-19T17:24:19.300Z,9.20
2019-02-19T17:29:25.446Z,12.53
2019-02-19T17:34:34.091Z,8.90
2019-02-19T17:39:45.900Z,9.73
2019-02-19T17:44:51.901Z,9.23
2019-02-19T17:49:57.918Z,8.93
2019-02-19T17:55:03.996Z,11.57
2019-02-19T18:00:15.166Z,10.83
2019-02-19T18:05:21.406Z,10.20
2019-02-19T18:10:27.393Z,11.63
2019-02-19T18:15:42.062Z,9.13
2019-02-19T18:20:47.866Z,11.23
2019-02-19T18:25:52.565Z,9.57
2019-02-19T18:30:57.175Z,10.10
2019-02-19T18:36:01.701Z,8.90
2019-02-19T18:41:06.205Z,9.57
2019-02-19T18:46:10.608Z,8.40
2019-02-19T18:51:15.118Z,9.17
2019-02-19T18:56:19.485Z,9.80
2019-02-19T19:01:23.865Z,11.13
2019-02-19T19:06:28.309Z,10.57
2019-02-19T19:11:32.844Z,10.73
2019-02-19T19:16:37.180Z,10.10
2019-02-19T19:21:41.586Z,11.20
2019-02-19T19:26:45.944Z,10.17
2019-02-19T19:31:50.363Z,8.73
2019-02-19T19:36:54.710Z,9.97
2019-02-19T19:41:59.077Z,10.20
2019-02-19T19:47:03.485Z,10.03
2019-02-19T19:52:08.346Z,11.33
2019-02-19T19:57:17.623Z,8.80
2019-02-19T20:02:32.456Z,9.07
2019-02-19T20:07:37.533Z,8.13
2019-02-19T20:12:41.967Z,10.93
2019-02-19T20:17:47.376Z,9.13
2019-02-19T20:22:51.796Z,8.83
2019-02-19T20:27:57.979Z,10.43
2019-02-19T20:33:02.400Z,10.37
2019-02-19T20:38:06.833Z,7.97
2019-02-19T20:43:11.284Z,12.07
2019-02-19T20:48:17.339Z,9.23
2019-02-19T20:53:21.811Z,11.27
2019-02-19T20:58:26.173Z,10.20
2019-02-19T21:03:30.732Z,9.37
2019-02-19T21:08:35.194Z,10.93
2019-02-19T21:19:10.892Z,9.13
2019-02-19T21:24:15.262Z,10.97
2019-02-19T21:29:19.842Z,11.17
2019-02-19T21:34:24.178Z,10.53
2019-02-19T21:39:28.687Z,10.53
2019-02-19T21:44:33.159Z,11.03
2019-02-19T21:49:37.542Z,9.30
2019-02-19T21:54:41.906Z,11.17
2019-02-19T21:59:46.453Z,10.87
2019-02-19T22:04:51.064Z,10.53
2019-02-19T22:09:55.537Z,10.97
2019-02-19T22:14:59.887Z,14.23
2019-02-19T22:20:11.713Z,10.00
2019-02-19T22:25:16.239Z,10.43
2019-02-19T22:30:20.623Z,12.30
2019-02-19T22:35:24.997Z,12.80
2019-02-19T22:40:29.406Z,9.73
2019-02-19T22:45:33.862Z,13.40
2019-02-19T22:50:38.320Z,11.83
2019-02-19T22:55:51.792Z,13.67
2019-02-19T23:00:59.580Z,13.80
2019-02-19T23:06:05.552Z,11.40
2019-02-19T23:11:10.053Z,13.77
2019-02-19T23:16:14.401Z,11.43
2019-02-19T23:21:18.785Z,13.37
2019-02-19T23:26:23.146Z,13.87
2019-02-19T23:31:27.492Z,11.20
2019-02-19T23:36:39.413Z,12.83
2019-02-19T23:41:43.830Z,12.10
2019-02-19T23:46:48.235Z,12.23
2019-02-19T23:51:52.577Z,12.40
2019-02-19T23:56:56.982Z,14.13
